Time;durP1;ratioP1;P1;durP2;ratioP2;P2;SDS_P1;SDS_P2;PMS_P1;PMS_P2;Temp;Humidity;BMP_temperature;BMP_pressure;BME280_temperature;BME280_humidity;BME280_pressure;Samples;Min_cycle;Max_cycle;Signal;HPM_P1;HPM_P2
2023/06/19 00:01:47;;;;;;;;;;;;;;;18.30;86.62;95303.97;5136387;27;1064;-59
2023/06/19 00:04:13;;;;;;;;;;;;;;;18.29;85.15;95303.16;5136873;27;968;-58
2023/06/19 00:06:39;;;;;;;;;;;;;;;18.09;89.45;95299.56;5136694;27;1219;-59
2023/06/19 00:09:06;;;;;;;;;;;;;;;18.00;90.79;95301.59;5136716;27;1036;-59
2023/06/19 00:11:32;;;;;;;;;;;;;;;17.96;93.23;95297.63;5133141;27;2389;-59
2023/06/19 00:13:59;;;;;;;;;;;;;;;17.96;93.71;95300.34;5102324;28;2834;-59
2023/06/19 00:16:25;;;;;;;;;;;;;;;17.94;89.73;95299.72;5095445;28;1049;-59
2023/06/19 00:18:55;;;;;;;;;;;;;;;18.03;90.27;95298.50;5095383;28;1992;-59
2023/06/19 00:21:24;;;;;;;;;;;;;;;18.01;90.88;95297.88;5095759;28;1048;-59
2023/06/19 00:23:51;;;;;;;;;;;;;;;17.97;91.53;95299.31;5095468;28;1269;-59
2023/06/19 00:26:17;;;;;;;;;;;;;;;17.98;93.52;95303.69;5105599;28;1688;-59
2023/06/19 00:28:45;;;;;;;;;;;;;;;17.99;93.99;95293.72;5105406;28;2545;-59
2023/06/19 00:31:13;;;;;;;;;;;;;;;17.99;94.30;95293.72;5095219;28;945;-59
2023/06/19 00:33:40;;;;;;;;;;;;;;;17.97;93.96;95291.22;5095323;28;1036;-59
2023/06/19 00:36:10;;;;;;;;;;;;;;;17.88;93.02;95295.13;5095212;28;1211;-59
2023/06/19 00:38:36;;;;;;;;;;;;;;;17.78;94.07;95289.25;5095388;28;1981;-59
2023/06/19 00:41:03;;;;;;;;;;;;;;;17.45;95.75;95293.44;5095006;28;1052;-59
2023/06/19 00:43:29;;;;;;;;;;;;;;;17.24;97.88;95286.28;5095274;28;1044;-59
2023/06/19 00:45:56;;;;;;;;;;;;;;;17.39;97.19;95286.16;5093824;28;1131;-59
2023/06/19 00:48:22;;;;;;;;;;;;;;;17.55;96.02;95291.22;5094979;28;1052;-59
2023/06/19 00:50:49;;;;;;;;;;;;;;;17.59;94.84;95286.25;5094983;28;1051;-59
2023/06/19 00:53:15;;;;;;;;;;;;;;;17.55;93.88;95283.13;5094714;28;1097;-59
2023/06/19 00:55:43;;;;;;;;;;;;;;;17.39;95.87;95293.44;5094797;28;1035;-59
2023/06/19 00:58:09;;;;;;;;;;;;;;;17.33;98.11;95287.78;5094604;28;2287;-59
2023/06/19 01:00:35;;;;;;;;;;;;;;;17.36;97.20;95290.09;5112655;28;2890;-59
2023/06/19 01:03:01;;;;;;;;;;;;;;;17.37;97.51;95286.34;5115046;28;1968;-59
2023/06/19 01:05:27;;;;;;;;;;;;;;;17.43;96.39;95283.88;5114912;28;1119;-59
2023/06/19 01:07:56;;;;;;;;;;;;;;;17.55;95.85;95276.88;5103464;28;2490;-59
2023/06/19 01:10:31;;;;;;;;;;;;;;;17.64;94.99;95270.28;5115112;28;1067;-59
2023/06/19 01:13:02;;;;;;;;;;;;;;;17.69;93.75;95265.06;5115272;28;991;-59
2023/06/19 01:15:29;;;;;;;;;;;;;;;17.72;93.92;95267.38;5115068;28;956;-59
2023/06/19 01:17:57;;;;;;;;;;;;;;;17.78;93.02;95271.16;5114787;28;1909;-58
2023/06/19 01:20:24;;;;;;;;;;;;;;;17.70;94.26;95272.16;5114783;28;972;-59
2023/06/19 01:22:50;;;;;;;;;;;;;;;17.70;94.59;95274.88;5113913;28;1052;-59
2023/06/19 01:25:16;;;;;;;;;;;;;;;17.65;94.22;95274.63;5114861;27;1432;-59
2023/06/19 01:27:45;;;;;;;;;;;;;;;17.61;98.13;95277.94;5113139;28;2285;-59
2023/06/19 01:30:12;;;;;;;;;;;;;;;17.64;96.40;95281.09;5102479;28;2826;-58
2023/06/19 01:32:41;;;;;;;;;;;;;;;17.62;95.71;95274.19;5094014;28;1108;-58
2023/06/19 01:35:09;;;;;;;;;;;;;;;17.53;97.55;95276.25;5094414;28;977;-58
2023/06/19 01:37:37;;;;;;;;;;;;;;;17.55;94.63;95277.72;5094166;28;1906;-58
2023/06/19 01:40:05;;;;;;;;;;;;;;;17.58;93.94;95278.34;5094333;28;984;-58
2023/06/19 01:42:32;;;;;;;;;;;;;;;17.48;94.30;95274.13;5094156;28;1052;-59
2023/06/19 01:44:58;;;;;;;;;;;;;;;17.45;95.41;95277.22;5094057;28;965;-58
2023/06/19 01:47:24;;;;;;;;;;;;;;;17.42;95.10;95287.63;5093772;28;1033;-58
2023/06/19 01:49:50;;;;;;;;;;;;;;;17.46;95.90;95275.38;5111126;28;2611;-58
2023/06/19 01:52:16;;;;;;;;;;;;;;;17.26;98.80;95276.09;5114119;28;1122;-58
2023/06/19 01:54:42;;;;;;;;;;;;;;;17.12;99.84;95277.91;5114117;27;1057;-58
2023/06/19 01:57:08;;;;;;;;;;;;;;;17.19;95.62;95272.53;5114132;28;1989;-58
2023/06/19 01:59:35;;;;;;;;;;;;;;;16.98;99.11;95271.59;5113937;28;1588;-59
2023/06/19 02:02:03;;;;;;;;;;;;;;;16.94;98.54;95277.56;5114044;28;1233;-59
2023/06/19 02:04:29;;;;;;;;;;;;;;;16.87;100.00;95274.84;5113878;28;1035;-59
2023/06/19 02:06:55;;;;;;;;;;;;;;;16.91;98.48;95281.50;5113919;28;958;-59
2023/06/19 02:09:21;;;;;;;;;;;;;;;16.95;96.13;95281.94;5114088;28;981;-58
2023/06/19 02:11:47;;;;;;;;;;;;;;;16.95;95.90;95279.25;5114206;28;1067;-58
2023/06/19 02:14:14;;;;;;;;;;;;;;;16.95;93.11;95282.78;5113786;28;1096;-59
2023/06/19 02:16:43;;;;;;;;;;;;;;;17.01;94.57;95286.56;5114242;28;1225;-58
2023/06/19 02:19:12;;;;;;;;;;;;;;;17.06;93.01;95284.09;5113712;28;1917;-58
2023/06/19 02:21:38;;;;;;;;;;;;;;;17.10;94.28;95279.97;5102856;28;2481;-59
2023/06/19 02:24:04;;;;;;;;;;;;;;;17.14;96.28;95283.94;5093698;28;1063;-59
2023/06/19 02:26:31;;;;;;;;;;;;;;;17.10;94.02;95287.25;5105476;28;1614;-59
2023/06/19 02:28:57;;;;;;;;;;;;;;;17.05;95.02;95287.00;5113597;28;1722;-58
2023/06/19 02:31:23;;;;;;;;;;;;;;;16.92;95.93;95282.31;5129672;28;960;-58
2023/06/19 02:33:49;;;;;;;;;;;;;;;16.92;97.57;95298.53;5114927;28;1009;-59
2023/06/19 02:36:19;;;;;;;;;;;;;;;16.82;97.80;95298.03;5117808;28;985;-59
2023/06/19 02:38:48;;;;;;;;;;;;;;;16.69;99.39;95293.34;5118016;27;1994;-59
2023/06/19 02:41:15;;;;;;;;;;;;;;;16.56;100.00;95300.31;5116783;28;2170;-59
2023/06/19 02:43:42;;;;;;;;;;;;;;;16.49;100.00;95301.28;5116108;28;2835;-60
2023/06/19 02:46:08;;;;;;;;;;;;;;;16.51;98.05;95301.94;5117716;28;1048;-59
2023/06/19 02:48:34;;;;;;;;;;;;;;;16.49;100.00;95298.59;5117595;28;1041;-58
2023/06/19 02:51:01;;;;;;;;;;;;;;;16.50;99.50;95298.38;5117982;28;1052;-59
2023/06/19 02:53:27;;;;;;;;;;;;;;;16.47;98.84;95300.66;5117760;28;952;-59
2023/06/19 02:55:53;;;;;;;;;;;;;;;16.38;98.39;95299.94;5117542;28;813;-58
2023/06/19 02:58:19;;;;;;;;;;;;;;;16.51;94.58;95293.84;5117469;28;1988;-58
2023/06/19 03:00:46;;;;;;;;;;;;;;;16.54;94.45;95301.53;5117543;28;956;-58
2023/06/19 03:03:12;;;;;;;;;;;;;;;16.54;94.18;95301.53;5116128;28;1103;-59
2023/06/19 03:05:38;;;;;;;;;;;;;;;16.51;93.31;95299.25;5117316;28;1053;-59
2023/06/19 03:08:04;;;;;;;;;;;;;;;16.39;93.96;95304.31;5117324;28;1111;-58
2023/06/19 03:10:31;;;;;;;;;;;;;;;16.41;92.88;95310.38;5117373;28;1031;-58
2023/06/19 03:12:58;;;;;;;;;;;;;;;16.39;92.92;95307.03;5117211;27;1111;-58
2023/06/19 03:15:24;;;;;;;;;;;;;;;16.39;92.11;95307.03;5117082;28;1037;-58
2023/06/19 03:17:52;;;;;;;;;;;;;;;16.35;94.16;95303.88;5117020;28;1996;-59
2023/06/19 03:20:18;;;;;;;;;;;;;;;16.28;95.79;95302.97;5117335;28;1059;-59
2023/06/19 03:22:44;;;;;;;;;;;;;;;16.06;95.91;95299.41;5117349;28;1010;-59
2023/06/19 03:25:10;;;;;;;;;;;;;;;15.85;97.73;95302.09;5105659;28;2457;-58
2023/06/19 03:27:36;;;;;;;;;;;;;;;15.90;98.53;95302.38;5116793;28;1560;-58
2023/06/19 03:30:06;;;;;;;;;;;;;;;15.86;97.98;95310.00;5117195;28;1040;-58
2023/06/19 03:32:33;;;;;;;;;;;;;;;15.90;99.01;95310.47;5117057;28;1035;-58
2023/06/19 03:34:59;;;;;;;;;;;;;;;15.95;100.00;95316.09;5116787;28;1024;-58
2023/06/19 03:37:25;;;;;;;;;;;;;;;15.97;99.15;95308.66;5116907;28;1910;-58
2023/06/19 03:39:51;;;;;;;;;;;;;;;16.00;98.62;95314.50;5116762;28;1084;-58
2023/06/19 03:42:17;;;;;;;;;;;;;;;16.16;97.21;95315.28;5116562;28;1099;-58
2023/06/19 03:44:43;;;;;;;;;;;;;;;16.06;97.41;95315.59;5116847;28;1027;-58
2023/06/19 03:47:09;;;;;;;;;;;;;;;15.98;97.61;95313.84;5116036;28;1031;-58
2023/06/19 03:49:35;;;;;;;;;;;;;;;16.19;97.28;95320.31;5116824;28;996;-58
2023/06/19 03:52:01;;;;;;;;;;;;;;;16.34;97.09;95331.03;5116701;28;1059;-58
2023/06/19 03:54:27;;;;;;;;;;;;;;;16.47;96.68;95328.47;5116499;28;1031;-58
2023/06/19 03:56:53;;;;;;;;;;;;;;;16.68;94.82;95329.50;5116705;28;1036;-58
2023/06/19 03:59:19;;;;;;;;;;;;;;;16.89;94.08;95331.34;5116270;28;1906;-58
2023/06/19 04:01:45;;;;;;;;;;;;;;;17.05;93.56;95339.13;5116579;28;945;-58
2023/06/19 04:04:11;;;;;;;;;;;;;;;17.06;95.53;95337.28;5116496;27;1024;-58
2023/06/19 04:06:37;;;;;;;;;;;;;;;17.05;94.76;95330.22;5116494;28;1039;-58
2023/06/19 04:09:04;;;;;;;;;;;;;;;17.07;95.00;95333.53;5100570;28;3114;-58
2023/06/19 04:11:30;;;;;;;;;;;;;;;17.07;94.79;95328.16;5095509;28;1112;-58
2023/06/19 04:13:56;;;;;;;;;;;;;;;17.02;94.87;95336.84;5095636;28;984;-58
2023/06/19 04:16:22;;;;;;;;;;;;;;;17.15;94.65;95336.13;5095466;28;1061;-59
2023/06/19 04:18:48;;;;;;;;;;;;;;;17.28;94.96;95335.34;5095367;28;1906;-59
2023/06/19 04:21:15;;;;;;;;;;;;;;;17.24;95.57;95332.19;5095730;28;957;-58
2023/06/19 04:23:41;;;;;;;;;;;;;;;17.39;91.58;95329.38;5095364;28;945;-59
2023/06/19 04:26:07;;;;;;;;;;;;;;;17.60;90.86;95328.47;5104442;28;1318;-58
2023/06/19 04:28:33;;;;;;;;;;;;;;;17.78;90.42;95346.03;5115530;28;1084;-58
2023/06/19 04:31:02;;;;;;;;;;;;;;;17.84;87.92;95342.53;5115597;28;1013;-58
2023/06/19 04:33:32;;;;;;;;;;;;;;;18.10;88.08;95331.81;5115838;28;1039;-57
2023/06/19 04:35:58;;;;;;;;;;;;;;;18.14;86.83;95333.09;5115594;27;1302;-57
2023/06/19 04:38:24;;;;;;;;;;;;;;;18.21;85.58;95330.41;5115479;28;1905;-58
2023/06/19 04:40:51;;;;;;;;;;;;;;;18.36;83.93;95342.91;5115833;28;1038;-58
2023/06/19 04:43:17;;;;;;;;;;;;;;;18.53;83.14;95342.34;5115399;28;1020;-58
2023/06/19 04:45:43;;;;;;;;;;;;;;;18.61;83.64;95335.03;5115647;28;997;-58
2023/06/19 04:48:09;;;;;;;;;;;;;;;18.57;81.77;95337.31;5115311;28;1191;-58
2023/06/19 04:50:35;;;;;;;;;;;;;;;18.61;84.98;95333.19;5115272;28;1033;-58
2023/06/19 04:53:01;;;;;;;;;;;;;;;18.60;80.58;95336.09;5115287;28;1311;-58
2023/06/19 04:55:27;;;;;;;;;;;;;;;18.71;83.14;95336.31;5114929;28;1570;-58
2023/06/19 04:57:53;;;;;;;;;;;;;;;18.96;81.76;95335.72;5113932;28;1988;-57
2023/06/19 05:00:19;;;;;;;;;;;;;;;19.11;81.55;95339.03;5115003;28;1028;-57
2023/06/19 05:02:47;;;;;;;;;;;;;;;19.09;79.09;95340.31;5115023;28;1290;-58
2023/06/19 05:05:13;;;;;;;;;;;;;;;19.06;80.46;95341.53;5114897;28;1096;-58
2023/06/19 05:07:39;;;;;;;;;;;;;;;19.18;80.58;95338.19;5114822;28;1052;-58
2023/06/19 05:10:06;;;;;;;;;;;;;;;19.31;80.68;95349.03;5114962;28;1102;-58
2023/06/19 05:12:33;;;;;;;;;;;;;;;19.37;79.43;95339.22;5114856;28;1044;-58
2023/06/19 05:14:59;;;;;;;;;;;;;;;19.45;77.73;95333.59;5114837;28;964;-58
2023/06/19 05:17:25;;;;;;;;;;;;;;;19.48;79.99;95341.28;5114896;28;1992;-58
2023/06/19 05:19:51;;;;;;;;;;;;;;;19.77;79.77;95339.13;5114700;27;1061;-58
2023/06/19 05:22:27;;;;;;;;;;;;;;;19.78;81.00;95341.66;5114551;28;1182;-58
2023/06/19 05:24:53;;;;;;;;;;;;;;;19.54;79.36;95343.16;5113801;28;1613;-57
2023/06/19 05:27:19;;;;;;;;;;;;;;;19.54;75.71;95339.59;5114203;28;1690;-59
2023/06/19 05:29:45;;;;;;;;;;;;;;;19.68;77.31;95350.19;5114493;28;1095;-58
2023/06/19 05:32:11;;;;;;;;;;;;;;;20.04;76.02;95348.84;5114784;28;964;-57
2023/06/19 05:34:37;;;;;;;;;;;;;;;20.24;75.09;95354.22;5114763;28;1038;-58
2023/06/19 05:37:03;;;;;;;;;;;;;;;20.53;75.36;95354.66;5114507;28;976;-57
2023/06/19 05:39:29;;;;;;;;;;;;;;;20.43;72.46;95349.72;5114560;28;1917;-58
2023/06/19 05:41:55;;;;;;;;;;;;;;;20.73;74.98;95349.13;5113167;28;1210;-58
2023/06/19 05:44:21;;;;;;;;;;;;;;;20.51;77.31;95350.50;5114534;28;1061;-58
2023/06/19 05:46:47;;;;;;;;;;;;;;;20.45;75.36;95358.47;5114262;28;1037;-58
2023/06/19 05:49:13;;;;;;;;;;;;;;;20.49;72.64;95358.88;5114272;28;967;-58
2023/06/19 05:51:41;;;;;;;;;;;;;;;20.71;74.61;95359.38;5113253;28;1051;-58
2023/06/19 05:54:07;;;;;;;;;;;;;;;21.21;72.94;95356.72;5106733;28;2870;-58
2023/06/19 05:56:33;;;;;;;;;;;;;;;21.40;69.92;95357.59;5092523;28;1072;-58
2023/06/19 05:59:00;;;;;;;;;;;;;;;21.32;67.54;95357.03;5093580;28;2009;-58
2023/06/19 06:01:27;;;;;;;;;;;;;;;21.09;71.79;95355.75;5093927;28;965;-58
2023/06/19 06:03:54;;;;;;;;;;;;;;;21.33;70.44;95364.13;5093809;28;1026;-59
2023/06/19 06:06:20;;;;;;;;;;;;;;;21.33;71.03;95361.41;5093727;28;1004;-58
2023/06/19 06:08:46;;;;;;;;;;;;;;;21.43;73.13;95359.00;5093275;28;1020;-58
2023/06/19 06:11:12;;;;;;;;;;;;;;;21.45;69.89;95362.38;5093721;28;977;-58
2023/06/19 06:13:38;;;;;;;;;;;;;;;21.55;70.86;95361.84;5093713;28;1013;-58
2023/06/19 06:16:04;;;;;;;;;;;;;;;21.76;69.48;95357.84;5093781;28;1104;-58
2023/06/19 06:18:30;;;;;;;;;;;;;;;21.91;71.27;95360.22;5093450;28;1981;-58
2023/06/19 06:24:18;;;;;;;;;;;;;;;22.68;70.87;95367.84;5093475;28;768;-58
2023/06/19 06:26:45;;;;;;;;;;;;;;;22.86;67.48;95362.34;5107318;28;1353;-59
2023/06/19 06:29:11;;;;;;;;;;;;;;;23.01;69.07;95364.63;5113741;28;945;-58
2023/06/19 06:31:39;;;;;;;;;;;;;;;23.08;67.07;95370.84;5113619;28;1203;-58
2023/06/19 06:34:05;;;;;;;;;;;;;;;23.03;66.27;95356.22;5113953;28;1052;-58
2023/06/19 06:36:31;;;;;;;;;;;;;;;23.18;66.61;95359.34;5108704;28;2502;-58
2023/06/19 06:38:57;;;;;;;;;;;;;;;23.41;67.34;95358.56;5093468;28;1902;-58
2023/06/19 06:41:23;;;;;;;;;;;;;;;23.33;63.09;95362.44;5093259;28;980;-58
2023/06/19 06:43:49;;;;;;;;;;;;;;;23.09;63.96;95361.59;5093167;28;1052;-58
2023/06/19 06:46:15;;;;;;;;;;;;;;;23.27;66.49;95357.13;5093240;28;989;-57
2023/06/19 06:48:42;;;;;;;;;;;;;;;23.36;64.33;95358.44;5093174;28;1127;-58
2023/06/19 06:51:10;;;;;;;;;;;;;;;23.26;65.30;95353.56;5093029;28;1521;-58
2023/06/19 06:53:36;;;;;;;;;;;;;;;23.46;65.65;95355.09;5093369;28;1344;-57
2023/06/19 06:56:02;;;;;;;;;;;;;;;23.80;62.62;95356.19;5093267;28;1020;-58
2023/06/19 06:58:28;;;;;;;;;;;;;;;23.99;64.73;95354.16;5092939;28;1992;-58
2023/06/19 07:00:55;;;;;;;;;;;;;;;24.06;65.46;95363.03;5093135;28;1066;-58
2023/06/19 07:03:21;;;;;;;;;;;;;;;24.14;62.21;95370.84;5092938;28;1053;-58
2023/06/19 07:05:48;;;;;;;;;;;;;;;24.20;58.49;95377.25;5092070;28;1005;-59
2023/06/19 07:08:14;;;;;;;;;;;;;;;24.20;61.77;95371.78;5092841;28;944;-58
2023/06/19 07:10:40;;;;;;;;;;;;;;;24.27;57.07;95364.28;5092782;28;1037;-58
2023/06/19 07:13:06;;;;;;;;;;;;;;;24.28;58.16;95359.66;5093263;28;997;-58
2023/06/19 07:15:32;;;;;;;;;;;;;;;24.43;60.44;95362.69;5092736;28;1044;-58
2023/06/19 07:17:58;;;;;;;;;;;;;;;24.49;58.04;95355.41;5092829;28;1909;-58
2023/06/19 07:20:24;;;;;;;;;;;;;;;24.63;56.57;95356.00;5092686;28;1032;-59
2023/06/19 07:22:51;;;;;;;;;;;;;;;24.58;56.50;95356.72;5095852;28;1088;-58
2023/06/19 07:25:17;;;;;;;;;;;;;;;24.62;55.68;95352.41;5098742;28;1305;-59
2023/06/19 07:27:43;;;;;;;;;;;;;;;24.74;60.25;95361.41;5116693;28;1271;-59
2023/06/19 07:30:10;;;;;;;;;;;;;;;24.89;56.44;95357.28;5117025;28;1008;-59
2023/06/19 07:32:37;;;;;;;;;;;;;;;24.97;54.42;95358.81;5116782;28;1028;-58
2023/06/19 07:35:04;;;;;;;;;;;;;;;25.14;58.88;95357.75;5116864;28;1012;-59
2023/06/19 07:37:30;;;;;;;;;;;;;;;25.37;57.25;95358.69;5116828;28;1996;-58
2023/06/19 07:39:56;;;;;;;;;;;;;;;25.41;52.44;95370.81;5116617;28;1028;-58
2023/06/19 07:42:22;;;;;;;;;;;;;;;25.20;58.68;95368.78;5100251;28;2512;-58
2023/06/19 07:44:48;;;;;;;;;;;;;;;25.13;57.14;95366.19;5096028;28;1311;-58
2023/06/19 07:47:15;;;;;;;;;;;;;;;25.21;54.37;95359.47;5095982;28;1057;-59
2023/06/19 07:49:41;;;;;;;;;;;;;;;25.29;56.80;95364.59;5096250;28;977;-58
2023/06/19 07:52:09;;;;;;;;;;;;;;;25.27;51.79;95362.09;5095947;28;1069;-58
2023/06/19 07:54:35;;;;;;;;;;;;;;;25.29;51.17;95364.59;5096459;28;934;-58
2023/06/19 07:57:01;;;;;;;;;;;;;;;25.46;52.88;95361.81;5095672;28;1141;-59
2023/06/19 07:59:27;;;;;;;;;;;;;;;25.41;52.58;95367.25;5095795;28;1996;-58
2023/06/19 08:01:53;;;;;;;;;;;;;;;25.47;54.73;95361.59;5096099;28;973;-58
2023/06/19 08:04:20;;;;;;;;;;;;;;;25.64;52.66;95367.03;5095570;28;1103;-59
2023/06/19 08:06:45;;;;;;;;;;;;;;;25.53;53.27;95373.44;5095989;28;1052;-59
2023/06/19 08:09:11;;;;;;;;;;;;;;;25.70;53.76;95370.69;5095738;28;989;-59
2023/06/19 08:11:38;;;;;;;;;;;;;;;25.85;54.28;95367.34;5095426;28;1045;-58
2023/06/19 08:14:04;;;;;;;;;;;;;;;25.94;53.43;95373.28;5095487;28;1048;-58
2023/06/19 08:16:30;;;;;;;;;;;;;;;25.88;50.30;95370.41;5095435;28;1053;-58
2023/06/19 08:18:56;;;;;;;;;;;;;;;25.84;51.86;95365.72;5095400;28;1910;-58
2023/06/19 08:21:22;;;;;;;;;;;;;;;25.83;53.03;95362.13;5095531;28;1038;-58
2023/06/19 08:23:48;;;;;;;;;;;;;;;26.04;50.56;95365.19;5095643;28;1031;-58
2023/06/19 08:26:14;;;;;;;;;;;;;;;26.05;48.85;95358.63;5104170;28;2603;-58
2023/06/19 08:28:41;;;;;;;;;;;;;;;26.07;50.80;95359.19;5128550;27;2818;-58
2023/06/19 08:31:07;;;;;;;;;;;;;;;26.07;51.05;95367.44;5136132;27;1084;-58
2023/06/19 08:33:35;;;;;;;;;;;;;;;25.91;49.63;95366.34;5135852;27;1044;-58
2023/06/19 08:36:01;;;;;;;;;;;;;;;25.76;48.79;95366.94;5136336;27;1086;-58
2023/06/19 08:38:27;;;;;;;;;;;;;;;25.86;51.04;95356.16;5136113;27;1910;-58
2023/06/19 08:40:55;;;;;;;;;;;;;;;25.93;45.98;95366.94;5136076;27;1045;-58
2023/06/19 08:43:21;;;;;;;;;;;;;;;25.95;49.87;95353.81;5135924;27;1210;-58
2023/06/19 08:46:07;;;;;;;;;;;;;;;25.98;50.28;95355.25;5136178;27;973;-58
2023/06/19 08:48:36;;;;;;;;;;;;;;;26.21;47.82;95356.91;5136157;27;948;-58
2023/06/19 08:51:04;;;;;;;;;;;;;;;26.21;51.23;95354.16;5135819;27;1083;-58
2023/06/19 08:53:34;;;;;;;;;;;;;;;26.42;47.29;95352.50;5135740;27;1040;-58
2023/06/19 08:56:00;;;;;;;;;;;;;;;26.47;49.57;95356.13;5135836;27;1205;-58
2023/06/19 08:58:26;;;;;;;;;;;;;;;26.48;48.42;95362.44;5135546;27;1910;-58
2023/06/19 09:00:52;;;;;;;;;;;;;;;26.57;48.27;95358.16;5135597;27;1044;-59
2023/06/19 09:03:21;;;;;;;;;;;;;;;26.44;47.65;95361.28;5135476;27;1201;-58
2023/06/19 09:05:51;;;;;;;;;;;;;;;26.54;47.09;95355.09;5135793;27;1035;-58
2023/06/19 09:08:17;;;;;;;;;;;;;;;26.70;47.16;95356.16;5135285;27;1021;-59
2023/06/19 09:10:56;;;;;;;;;;;;;;;26.76;46.80;95364.16;5135893;27;1016;-58
2023/06/19 09:13:22;;;;;;;;;;;;;;;26.67;47.09;95361.06;5135141;27;1048;-59
2023/06/19 09:15:50;;;;;;;;;;;;;;;26.62;47.41;95363.75;5112614;28;2523;-59
2023/06/19 09:18:16;;;;;;;;;;;;;;;26.56;48.19;95352.94;5112925;28;2493;-58
2023/06/19 09:20:45;;;;;;;;;;;;;;;26.75;47.14;95353.44;5112382;28;2544;-59
2023/06/19 09:23:11;;;;;;;;;;;;;;;26.81;46.90;95350.50;5114519;28;904;-59
2023/06/19 09:25:47;;;;;;;;;;;;;;;26.74;45.64;95344.38;5114461;28;1471;-58
2023/06/19 09:28:31;;;;;;;;;;;;;;;26.63;48.91;95342.63;5111764;28;1265;-58
2023/06/19 09:31:01;;;;;;;;;;;;;;;26.64;46.08;95347.84;5114765;28;1039;-58
2023/06/19 09:33:32;;;;;;;;;;;;;;;26.61;47.83;95348.34;5114364;28;965;-58
2023/06/19 09:35:59;;;;;;;;;;;;;;;26.70;49.37;95346.00;5112581;28;2429;-59
2023/06/19 09:38:29;;;;;;;;;;;;;;;26.58;45.05;95348.88;5113558;28;2958;-60
2023/06/19 09:40:56;;;;;;;;;;;;;;;26.72;45.68;95348.50;5103226;28;2972;-59
2023/06/19 09:43:24;;;;;;;;;;;;;;;26.80;43.58;95335.13;5100908;28;2471;-60
2023/06/19 09:45:50;;;;;;;;;;;;;;;26.86;48.22;95327.78;5113094;28;2842;-59
2023/06/19 09:48:19;;;;;;;;;;;;;;;26.81;45.69;95333.22;5112450;28;2521;-58
2023/06/19 09:50:47;;;;;;;;;;;;;;;26.82;46.41;95338.44;5114032;28;1061;-58
2023/06/19 09:53:13;;;;;;;;;;;;;;;26.87;46.53;95324.78;5114259;28;1011;-58
2023/06/19 09:55:40;;;;;;;;;;;;;;;26.96;48.25;95316.91;5114245;28;967;-58
2023/06/19 09:58:07;;;;;;;;;;;;;;;26.63;45.89;95321.50;5114057;28;1902;-58
2023/06/19 10:00:34;;;;;;;;;;;;;;;26.89;48.00;95327.25;5113916;28;1021;-59
2023/06/19 10:03:02;;;;;;;;;;;;;;;27.02;46.97;95328.75;5113911;28;987;-59
2023/06/19 10:05:31;;;;;;;;;;;;;;;27.08;46.07;95333.19;5113781;28;1054;-58
2023/06/19 10:08:01;;;;;;;;;;;;;;;27.07;46.15;95317.81;5114024;28;1058;-58
2023/06/19 10:10:27;;;;;;;;;;;;;;;27.22;45.96;95330.84;5113920;28;1063;-59
2023/06/19 10:13:14;;;;;;;;;;;;;;;27.28;43.51;95338.06;5114072;28;1035;-59
2023/06/19 10:15:44;;;;;;;;;;;;;;;27.24;43.14;95336.88;5113626;28;1875;-59
2023/06/19 10:18:17;;;;;;;;;;;;;;;27.20;43.34;95330.28;5112608;28;1977;-58
2023/06/19 10:20:44;;;;;;;;;;;;;;;27.14;46.31;95317.59;5113978;28;952;-59
2023/06/19 10:23:10;;;;;;;;;;;;;;;27.11;45.23;95323.59;5111719;28;2546;-58
2023/06/19 10:25:43;;;;;;;;;;;;;;;27.13;44.03;95324.16;5113677;28;1317;-59
2023/06/19 10:28:26;;;;;;;;;;;;;;;27.07;44.17;95321.41;5110258;28;1092;-59
2023/06/19 10:30:54;;;;;;;;;;;;;;;26.96;39.12;95327.88;5113654;28;1075;-59
2023/06/19 10:33:20;;;;;;;;;;;;;;;26.91;43.26;95322.34;5111668;28;2561;-59
2023/06/19 10:35:46;;;;;;;;;;;;;;;27.15;45.16;95305.53;5134414;27;1007;-58
2023/06/19 10:38:14;;;;;;;;;;;;;;;27.18;43.35;95310.50;5133851;28;2062;-58
2023/06/19 10:40:41;;;;;;;;;;;;;;;27.21;45.06;95307.25;5133082;28;1012;-58
2023/06/19 10:43:07;;;;;;;;;;;;;;;27.34;41.11;95320.56;5133978;27;1024;-58
2023/06/19 10:45:33;;;;;;;;;;;;;;;27.34;44.42;95312.31;5133831;27;916;-58
2023/06/19 10:48:02;;;;;;;;;;;;;;;27.15;42.08;95311.88;5134004;28;984;-59
2023/06/19 10:50:28;;;;;;;;;;;;;;;27.08;43.22;95306.56;5134184;27;1003;-59
2023/06/19 10:52:57;;;;;;;;;;;;;;;27.12;43.24;95308.81;5122292;27;2541;-59
2023/06/19 10:55:23;;;;;;;;;;;;;;;27.13;43.15;95308.56;5115260;28;1051;-58
2023/06/19 10:57:49;;;;;;;;;;;;;;;27.12;44.70;95306.06;5117335;28;1986;-59
2023/06/19 11:00:26;;;;;;;;;;;;;;;27.22;45.10;95303.38;5117634;28;1024;-58
2023/06/19 11:02:52;;;;;;;;;;;;;;;27.43;46.18;95296.16;5117360;28;1052;-58
2023/06/19 11:05:21;;;;;;;;;;;;;;;27.50;42.81;95306.94;5117488;28;1028;-59
2023/06/19 11:08:05;;;;;;;;;;;;;;;27.61;41.10;95306.72;5117424;28;976;-59
2023/06/19 11:10:32;;;;;;;;;;;;;;;27.55;42.38;95299.56;5117147;28;1041;-59
2023/06/19 11:12:58;;;;;;;;;;;;;;;27.52;41.32;95297.31;5117365;28;1024;-58
2023/06/19 11:15:31;;;;;;;;;;;;;;;27.48;43.61;95298.97;5117013;28;1092;-59
2023/06/19 11:17:58;;;;;;;;;;;;;;;27.35;43.62;95288.44;5117056;28;1974;-59
2023/06/19 11:20:25;;;;;;;;;;;;;;;27.40;43.84;95283.81;5116862;28;1041;-58
2023/06/19 11:22:56;;;;;;;;;;;;;;;27.54;44.70;95291.56;5116897;28;1017;-59
2023/06/19 11:25:22;;;;;;;;;;;;;;;27.69;39.49;95301.84;5116953;28;1336;-59
2023/06/19 11:27:52;;;;;;;;;;;;;;;27.60;42.53;95291.34;5116759;28;1322;-59
2023/06/19 11:30:20;;;;;;;;;;;;;;;27.40;43.36;95292.03;5115706;28;2423;-59
2023/06/19 11:32:48;;;;;;;;;;;;;;;27.51;41.99;95292.09;5114816;28;2854;-59
2023/06/19 11:35:16;;;;;;;;;;;;;;;27.41;41.97;95301.94;5097415;28;2917;-59
2023/06/19 11:37:43;;;;;;;;;;;;;;;27.24;39.10;95309.44;5096183;28;1905;-58
2023/06/19 11:40:14;;;;;;;;;;;;;;;27.32;39.02;95309.00;5096202;28;1231;-58
2023/06/19 11:42:47;;;;;;;;;;;;;;;27.47;38.45;95308.31;5111935;28;1037;-59
2023/06/19 11:45:14;;;;;;;;;;;;;;;27.37;38.74;95302.72;5095992;28;1089;-59
2023/06/19 11:47:40;;;;;;;;;;;;;;;27.34;37.99;95309.56;5104558;28;2414;-59
2023/06/19 11:50:06;;;;;;;;;;;;;;;27.36;38.16;95304.66;5095754;28;2878;-58
2023/06/19 11:52:32;;;;;;;;;;;;;;;27.37;38.43;95302.72;5096203;28;1051;-59
2023/06/19 11:54:58;;;;;;;;;;;;;;;27.56;39.81;95301.19;5096157;28;940;-59
2023/06/19 11:57:26;;;;;;;;;;;;;;;27.50;37.72;95298.69;5095705;28;1037;-58
2023/06/19 11:59:52;;;;;;;;;;;;;;;27.41;40.17;95287.38;5095922;28;1020;-59
2023/06/19 12:02:18;;;;;;;;;;;;;;;27.28;39.33;95294.16;5094766;28;1004;-59
2023/06/19 12:04:44;;;;;;;;;;;;;;;27.29;41.26;95287.56;5095643;28;1140;-59
2023/06/19 12:07:11;;;;;;;;;;;;;;;27.23;39.60;95281.19;5095314;28;973;-59
2023/06/19 12:09:38;;;;;;;;;;;;;;;27.11;37.80;95293.41;5095633;28;1072;-59
2023/06/19 12:12:05;;;;;;;;;;;;;;;27.12;38.94;95284.94;5104182;28;2441;-59
2023/06/19 12:14:31;;;;;;;;;;;;;;;27.24;40.77;95269.13;5095600;28;1026;-59
2023/06/19 12:16:57;;;;;;;;;;;;;;;27.27;40.26;95273.28;5095608;28;977;-59
2023/06/19 12:19:25;;;;;;;;;;;;;;;27.21;39.45;95282.53;5103657;28;2503;-59
2023/06/19 12:21:51;;;;;;;;;;;;;;;27.17;40.80;95275.94;5111115;28;1052;-59
2023/06/19 12:24:17;;;;;;;;;;;;;;;27.21;41.67;95271.56;5095518;28;1032;-59
2023/06/19 12:26:43;;;;;;;;;;;;;;;27.22;39.08;95278.69;5109238;28;1373;-59
2023/06/19 12:29:09;;;;;;;;;;;;;;;27.02;38.64;95271.97;5115949;28;1253;-59
2023/06/19 12:31:38;;;;;;;;;;;;;;;27.12;40.44;95267.66;5116109;28;1045;-59
2023/06/19 12:34:05;;;;;;;;;;;;;;;27.17;39.90;95264.94;5114874;27;973;-59
2023/06/19 12:36:31;;;;;;;;;;;;;;;27.17;40.47;95257.53;5115811;28;1201;-58
2023/06/19 12:38:58;;;;;;;;;;;;;;;26.99;39.39;95263.44;5115697;28;1913;-59
2023/06/19 12:41:24;;;;;;;;;;;;;;;27.10;39.47;95264.34;5115364;28;1291;-58
2023/06/19 12:43:50;;;;;;;;;;;;;;;27.14;39.72;95262.72;5115659;28;1019;-59
2023/06/19 12:46:16;;;;;;;;;;;;;;;27.18;38.33;95270.16;5115548;28;1019;-58
2023/06/19 12:48:43;;;;;;;;;;;;;;;27.09;40.50;95260.78;5115163;28;1103;-59
2023/06/19 12:51:09;;;;;;;;;;;;;;;27.06;39.81;95255.81;5114022;28;1293;-59
2023/06/19 12:53:35;;;;;;;;;;;;;;;26.92;38.38;95255.44;5115040;28;1108;-59
2023/06/19 12:56:01;;;;;;;;;;;;;;;26.88;38.76;95259.75;5115115;28;1108;-58
2023/06/19 12:58:27;;;;;;;;;;;;;;;26.85;40.35;95252.06;5114886;28;1910;-59
2023/06/19 13:00:53;;;;;;;;;;;;;;;26.76;38.33;95257.19;5115326;28;1027;-59